createdAt,value
2023-04-03T00:00:36.259Z,12.29
2023-04-03T00:03:03.237Z,12.59
2023-04-03T00:05:29.872Z,12.86
2023-04-03T00:07:56.473Z,12.68
2023-04-03T00:10:23.234Z,13.00
2023-04-03T00:12:49.750Z,12.97
2023-04-03T00:15:16.647Z,13.03
2023-04-03T00:17:43.220Z,13.09
2023-04-03T00:20:10.435Z,13.11
2023-04-03T00:22:37.066Z,12.99
2023-04-03T00:25:04.349Z,13.05
2023-04-03T00:27:31.030Z,12.95
2023-04-03T00:29:57.603Z,13.03
2023-04-03T00:32:24.186Z,13.00
2023-04-03T00:34:50.976Z,13.00
2023-04-03T00:37:17.542Z,12.85
2023-04-03T00:39:44.051Z,13.03
2023-04-03T00:42:10.696Z,13.08
2023-04-03T00:44:37.131Z,13.21
2023-04-03T00:47:07.794Z,12.89
2023-04-03T00:49:35.148Z,13.12
2023-04-03T00:52:02.337Z,13.17
2023-04-03T00:54:28.977Z,13.25
2023-04-03T00:56:58.218Z,13.17
2023-04-03T00:59:31.127Z,13.15
2023-04-03T01:01:58.030Z,13.00
2023-04-03T01:04:37.086Z,13.04
2023-04-03T01:07:25.366Z,13.11
2023-04-03T01:09:56.712Z,12.68
2023-04-03T01:12:24.848Z,12.55
2023-04-03T01:14:54.518Z,12.47
2023-04-03T01:17:31.353Z,12.66
2023-04-03T01:20:36.927Z,12.50
2023-04-03T01:23:09.788Z,12.55
2023-04-03T01:25:48.780Z,12.67
2023-04-03T01:28:25.287Z,12.97
2023-04-03T01:31:36.650Z,12.80
2023-04-03T01:34:03.460Z,12.67
2023-04-03T01:36:32.401Z,12.70
2023-04-03T01:39:00.640Z,12.63
2023-04-03T01:41:28.448Z,12.83
2023-04-03T01:44:01.180Z,12.95
2023-04-03T01:46:27.873Z,12.87
2023-04-03T01:48:54.615Z,12.91
2023-04-03T01:51:21.325Z,13.00
2023-04-03T01:53:48.066Z,12.79
2023-04-03T01:56:14.582Z,12.29
2023-04-03T01:58:41.150Z,12.18
2023-04-03T02:01:07.788Z,12.17
2023-04-03T02:03:34.549Z,12.24
2023-04-03T02:06:01.138Z,12.23
2023-04-03T02:08:27.719Z,12.58
2023-04-03T02:10:54.312Z,12.65
2023-04-03T02:13:20.926Z,12.76
2023-04-03T02:15:48.617Z,12.72
2023-04-03T02:18:17.600Z,12.54
2023-04-03T02:20:44.774Z,12.59
2023-04-03T02:23:11.521Z,12.59
2023-04-03T02:25:38.847Z,12.43
2023-04-03T02:28:06.177Z,12.74
2023-04-03T02:30:32.736Z,12.68
2023-04-03T02:32:59.398Z,12.64
2023-04-03T02:35:27.072Z,12.59
2023-04-03T02:37:56.600Z,12.74
2023-04-03T02:40:23.465Z,12.72
2023-04-03T02:42:50.885Z,12.61
2023-04-03T02:45:19.053Z,12.61
2023-04-03T02:47:45.884Z,12.47
2023-04-03T02:50:12.628Z,12.35
2023-04-03T02:52:39.201Z,12.00
2023-04-03T02:55:06.788Z,11.99
2023-04-03T02:57:33.561Z,12.06
2023-04-03T03:00:00.560Z,12.10
2023-04-03T03:02:27.235Z,12.06
2023-04-03T03:04:53.791Z,12.06
2023-04-03T03:07:20.659Z,12.11
2023-04-03T03:09:47.201Z,12.14
2023-04-03T03:12:13.772Z,12.30
2023-04-03T03:14:40.449Z,12.18
2023-04-03T03:17:07.045Z,12.16
2023-04-03T03:19:34.005Z,11.61
2023-04-03T03:22:00.928Z,11.57
2023-04-03T03:24:27.457Z,11.53
2023-04-03T03:26:54.015Z,11.55
2023-04-03T03:29:20.670Z,11.43
2023-04-03T03:31:47.335Z,11.61
2023-04-03T03:34:14.071Z,11.76
2023-04-03T03:36:40.708Z,11.78
2023-04-03T03:39:07.353Z,11.83
2023-04-03T03:41:34.012Z,11.78
2023-04-03T03:44:01.305Z,11.73
2023-04-03T03:46:30.183Z,11.56
2023-04-03T03:48:56.797Z,11.49
2023-04-03T03:51:23.581Z,11.33
2023-04-03T03:53:50.552Z,11.04
2023-04-03T03:56:19.411Z,11.17
2023-04-03T03:58:46.672Z,11.16
2023-04-03T04:01:13.685Z,11.02
2023-04-03T04:03:45.068Z,11.10
2023-04-03T04:06:15.881Z,11.16
2023-04-03T04:08:43.089Z,11.24
2023-04-03T04:11:11.921Z,11.14
2023-04-03T04:13:39.555Z,11.21
2023-04-03T04:16:08.311Z,10.71
2023-04-03T04:18:35.142Z,10.93
2023-04-03T04:21:01.887Z,11.03
2023-04-03T04:23:29.014Z,11.17
2023-04-03T04:25:55.955Z,10.97
2023-04-03T04:28:24.083Z,10.89
2023-04-03T04:30:53.153Z,10.86
2023-04-03T04:33:21.633Z,10.69
2023-04-03T04:35:49.473Z,10.87
2023-04-03T04:38:18.429Z,10.78
2023-04-03T04:40:45.529Z,11.12
2023-04-03T04:43:15.245Z,10.90
2023-04-03T04:45:43.516Z,10.80
2023-04-03T04:48:10.406Z,10.30
2023-04-03T04:50:37.176Z,10.08
2023-04-03T04:53:05.120Z,10.30
2023-04-03T04:55:31.715Z,10.31
2023-04-03T04:57:58.507Z,10.89
2023-04-03T05:00:25.611Z,10.86
2023-04-03T05:02:52.435Z,11.30
2023-04-03T05:05:19.890Z,11.04
2023-04-03T05:07:47.145Z,11.00
2023-04-03T05:10:14.178Z,10.86
2023-04-03T05:12:41.614Z,10.69
2023-04-03T05:15:09.423Z,10.43
2023-04-03T05:17:36.365Z,10.88
2023-04-03T05:20:06.361Z,10.79
2023-04-03T05:22:34.351Z,10.33
2023-04-03T05:25:07.156Z,10.47
2023-04-03T05:27:33.747Z,10.53
2023-04-03T05:30:00.867Z,10.42
2023-04-03T05:32:28.498Z,10.37
2023-04-03T05:35:08.318Z,10.65
2023-04-03T05:37:36.557Z,10.89
2023-04-03T05:40:05.349Z,10.98
2023-04-03T05:42:32.580Z,10.60
2023-04-03T05:44:59.225Z,10.29
2023-04-03T05:47:25.847Z,10.86
2023-04-03T05:49:52.846Z,10.72
2023-04-03T05:52:30.319Z,10.59
2023-04-03T05:54:57.017Z,10.65
2023-04-03T05:57:26.981Z,10.85
2023-04-03T05:59:53.624Z,11.01
2023-04-03T06:02:24.033Z,10.93
2023-04-03T06:04:52.104Z,10.91
2023-04-03T06:07:23.551Z,10.93
2023-04-03T06:09:52.148Z,11.06
2023-04-03T06:12:20.034Z,11.17
2023-04-03T06:14:47.435Z,10.79
2023-04-03T06:17:16.251Z,11.08
2023-04-03T06:19:43.193Z,11.09
2023-04-03T06:22:10.065Z,11.03
2023-04-03T06:24:36.910Z,11.09
2023-04-03T06:27:03.608Z,11.38
2023-04-03T06:29:30.566Z,11.48
2023-04-03T06:31:57.717Z,11.63
2023-04-03T06:34:24.356Z,11.93
2023-04-03T06:36:51.573Z,12.93
2023-04-03T06:39:24.223Z,13.27
2023-04-03T06:41:52.074Z,13.42
2023-04-03T06:44:26.338Z,14.40
2023-04-03T06:46:53.512Z,13.66
2023-04-03T06:49:20.538Z,13.12
2023-04-03T06:51:47.234Z,12.74
2023-04-03T06:54:13.937Z,12.58
2023-04-03T06:56:40.588Z,12.74
2023-04-03T06:59:07.326Z,12.46
2023-04-03T07:01:34.440Z,12.93
2023-04-03T07:04:01.256Z,13.47
2023-04-03T07:06:28.029Z,12.77
2023-04-03T07:08:55.844Z,13.29
2023-04-03T07:11:23.304Z,13.37
2023-04-03T07:13:50.364Z,13.15
2023-04-03T07:16:16.942Z,13.97
2023-04-03T07:18:43.641Z,14.83
2023-04-03T07:21:10.340Z,15.84
2023-04-03T07:23:37.353Z,16.72
2023-04-03T07:26:04.251Z,17.14
2023-04-03T07:28:31.172Z,17.42
2023-04-03T07:31:08.178Z,16.52
2023-04-03T07:33:35.886Z,16.06
2023-04-03T07:36:03.213Z,16.15
2023-04-03T07:38:30.065Z,16.47
2023-04-03T07:40:56.607Z,16.50
2023-04-03T07:43:23.454Z,16.21
2023-04-03T07:45:51.764Z,16.54
2023-04-03T07:48:23.673Z,16.90
2023-04-03T07:50:50.790Z,16.29
2023-04-03T07:53:18.090Z,16.20
2023-04-03T07:55:47.625Z,16.27
2023-04-03T07:58:17.931Z,16.56
2023-04-03T08:00:46.270Z,15.18
2023-04-03T08:03:13.860Z,14.30
2023-04-03T08:05:42.450Z,14.39
2023-04-03T08:08:10.803Z,14.36
2023-04-03T08:10:37.884Z,14.31
2023-04-03T08:13:05.710Z,14.38
2023-04-03T08:15:32.756Z,14.04
2023-04-03T08:18:00.501Z,14.06
2023-04-03T08:20:27.837Z,14.13
2023-04-03T08:22:54.965Z,13.83
2023-04-03T08:25:21.995Z,14.03
2023-04-03T08:27:48.730Z,14.06
2023-04-03T08:30:15.387Z,14.12
2023-04-03T08:32:45.341Z,14.27
2023-04-03T08:35:12.540Z,13.91
2023-04-03T08:37:40.789Z,13.76
2023-04-03T08:40:13.814Z,14.12
2023-04-03T08:42:52.416Z,13.99
2023-04-03T08:45:32.521Z,14.12
2023-04-03T08:48:21.121Z,14.31
2023-04-03T08:50:53.278Z,14.46
2023-04-03T08:53:29.318Z,14.53
2023-04-03T08:55:56.828Z,14.80
2023-04-03T08:58:26.988Z,15.10
2023-04-03T09:01:07.246Z,15.21
2023-04-03T09:03:38.313Z,15.05
2023-04-03T09:06:11.216Z,15.49
2023-04-03T09:08:44.001Z,16.01
2023-04-03T09:11:11.053Z,16.21
2023-04-03T09:13:58.498Z,16.49
2023-04-03T09:16:33.450Z,16.55
2023-04-03T09:19:31.156Z,16.42
2023-04-03T09:21:59.279Z,16.84
2023-04-03T09:24:26.350Z,16.91
2023-04-03T09:27:04.563Z,17.40
2023-04-03T09:29:31.444Z,17.36
2023-04-03T09:32:01.726Z,17.49
2023-04-03T09:34:33.774Z,17.93
2023-04-03T09:37:06.799Z,17.95
2023-04-03T09:39:54.201Z,17.85
2023-04-03T09:42:26.168Z,17.98
2023-04-03T09:45:05.447Z,18.49
2023-04-03T09:47:37.173Z,18.32
2023-04-03T09:50:13.569Z,18.60
2023-04-03T09:52:41.832Z,18.48
2023-04-03T09:55:15.284Z,18.12
2023-04-03T09:57:42.519Z,18.70
2023-04-03T10:00:39.095Z,18.89
2023-04-03T10:03:25.571Z,18.62
2023-04-03T10:05:55.173Z,18.64
2023-04-03T10:08:24.914Z,18.69
2023-04-03T10:11:09.102Z,18.51
2023-04-03T10:13:41.988Z,19.14
2023-04-03T10:16:19.552Z,19.45
2023-04-03T10:18:56.569Z,18.87
2023-04-03T10:22:02.142Z,18.81
2023-04-03T10:24:47.122Z,18.81
2023-04-03T10:27:23.897Z,18.52
2023-04-03T10:30:04.680Z,18.81
2023-04-03T10:32:46.723Z,18.60
2023-04-03T10:35:28.435Z,17.94
2023-04-03T10:38:23.869Z,18.46
2023-04-03T10:41:05.326Z,19.04
2023-04-03T10:44:09.154Z,18.89
2023-04-03T10:46:45.016Z,18.77
2023-04-03T10:49:15.958Z,18.32
2023-04-03T10:52:01.644Z,18.47
2023-04-03T10:55:11.547Z,18.78
2023-04-03T10:57:38.671Z,18.37
2023-04-03T11:00:19.157Z,18.56
2023-04-03T11:02:56.364Z,18.47
2023-04-03T11:06:04.720Z,18.85
2023-04-03T11:08:49.304Z,18.62
2023-04-03T11:11:28.181Z,19.05
2023-04-03T11:14:04.242Z,19.19
2023-04-03T11:16:43.613Z,18.54
2023-04-03T11:19:28.247Z,18.92
2023-04-03T11:22:24.866Z,19.23
2023-04-03T11:25:03.449Z,18.95
2023-04-03T11:27:38.889Z,18.62
2023-04-03T11:30:07.326Z,18.61
2023-04-03T11:32:58.909Z,18.68
2023-04-03T11:35:27.360Z,18.32
2023-04-03T11:37:55.090Z,18.25
2023-04-03T11:40:33.977Z,18.17
2023-04-03T11:43:00.623Z,17.99
2023-04-03T11:45:40.176Z,18.40
2023-04-03T11:48:30.491Z,18.38
2023-04-03T11:50:57.617Z,18.23
2023-04-03T11:53:31.582Z,18.58
2023-04-03T11:56:28.503Z,18.87
2023-04-03T11:59:14.335Z,18.81
2023-04-03T12:01:50.081Z,18.44
2023-04-03T12:04:18.741Z,18.73
2023-04-03T12:06:49.817Z,18.42
2023-04-03T12:09:28.325Z,18.39
2023-04-03T12:11:57.403Z,18.62
2023-04-03T12:14:26.667Z,18.43
2023-04-03T12:16:58.394Z,18.90
2023-04-03T12:19:42.607Z,19.24
2023-04-03T12:22:16.784Z,18.61
2023-04-03T12:24:46.537Z,18.32
2023-04-03T12:27:30.775Z,18.68
2023-04-03T12:30:04.811Z,18.52
2023-04-03T12:32:41.217Z,18.24
2023-04-03T12:35:23.090Z,18.45
2023-04-03T12:38:35.825Z,19.06
2023-04-03T12:41:22.268Z,18.49
2023-04-03T12:43:56.944Z,18.15
2023-04-03T12:46:27.255Z,18.13
2023-04-03T12:48:59.284Z,18.70
2023-04-03T12:51:40.978Z,18.79
2023-04-03T12:54:25.687Z,18.69
2023-04-03T12:56:52.470Z,18.62
2023-04-03T12:59:27.602Z,18.55
2023-04-03T13:01:56.628Z,18.37
2023-04-03T13:04:24.616Z,18.28
2023-04-03T13:06:52.019Z,18.00
2023-04-03T13:09:31.656Z,18.38
2023-04-03T13:12:12.485Z,18.39
2023-04-03T13:14:40.070Z,18.63
2023-04-03T13:17:17.717Z,18.21
2023-04-03T13:19:46.891Z,18.60
2023-04-03T13:22:40.246Z,18.38
2023-04-03T13:25:10.431Z,18.47
2023-04-03T13:27:40.309Z,18.21
2023-04-03T13:30:20.660Z,18.10
2023-04-03T13:32:47.463Z,18.13
2023-04-03T13:35:33.110Z,18.44
2023-04-03T13:38:03.717Z,17.65
2023-04-03T13:40:37.964Z,17.35
2023-04-03T13:43:24.227Z,18.00
2023-04-03T13:45:59.641Z,18.17
2023-04-03T13:48:26.939Z,18.30
2023-04-03T13:51:13.127Z,18.47
2023-04-03T13:54:01.049Z,18.35
2023-04-03T13:56:38.581Z,17.98
2023-04-03T13:59:17.365Z,18.29
2023-04-03T14:01:50.510Z,17.94
2023-04-03T14:04:29.432Z,17.81
2023-04-03T14:06:56.763Z,18.19
2023-04-03T14:09:26.964Z,18.49
2023-04-03T14:11:58.124Z,18.66
2023-04-03T14:14:30.831Z,17.97
2023-04-03T14:17:00.990Z,18.13
2023-04-03T14:19:34.573Z,17.87
2023-04-03T14:22:23.222Z,17.64
2023-04-03T14:24:51.519Z,18.11
2023-04-03T14:27:20.171Z,18.30
2023-04-03T14:29:48.737Z,18.36
2023-04-03T14:32:17.582Z,18.46
2023-04-03T14:34:46.009Z,18.27
2023-04-03T14:37:20.192Z,17.77
2023-04-03T14:39:47.427Z,17.55
2023-04-03T14:42:17.819Z,17.33
2023-04-03T14:44:45.307Z,17.79
2023-04-03T14:47:23.269Z,18.08
2023-04-03T14:49:57.085Z,17.45
2023-04-03T14:52:28.102Z,17.70
2023-04-03T14:54:55.289Z,17.62
2023-04-03T14:57:25.948Z,18.42
2023-04-03T14:59:53.016Z,18.01
2023-04-03T15:02:30.589Z,17.76
2023-04-03T15:04:58.618Z,17.57
2023-04-03T15:07:27.744Z,17.47
2023-04-03T15:09:56.996Z,17.13
2023-04-03T15:12:25.169Z,16.94
2023-04-03T15:15:01.062Z,17.06
2023-04-03T15:17:28.542Z,17.17
2023-04-03T15:19:55.089Z,17.75
2023-04-03T15:22:21.789Z,17.74
2023-04-03T15:24:48.383Z,17.93
2023-04-03T15:27:16.235Z,17.97
2023-04-03T15:29:44.157Z,17.59
2023-04-03T15:32:11.567Z,17.48
2023-04-03T15:34:38.956Z,17.74
2023-04-03T15:37:06.398Z,17.74
2023-04-03T15:39:32.931Z,17.29
2023-04-03T15:42:06.847Z,17.55
2023-04-03T15:44:35.360Z,18.17
2023-04-03T15:47:02.581Z,18.66
2023-04-03T15:49:29.559Z,18.65
2023-04-03T15:51:56.273Z,18.32
2023-04-03T15:54:24.784Z,17.33
2023-04-03T15:56:51.524Z,17.65
2023-04-03T15:59:18.546Z,17.73
2023-04-03T16:01:45.637Z,17.78
2023-04-03T16:04:13.365Z,17.62
2023-04-03T16:06:41.999Z,17.89
2023-04-03T16:09:10.650Z,17.77
2023-04-03T16:11:39.936Z,17.68
2023-04-03T16:14:08.116Z,17.47
2023-04-03T16:16:34.814Z,17.47
2023-04-03T16:19:01.582Z,17.26
2023-04-03T16:21:29.146Z,17.49
2023-04-03T16:23:58.775Z,17.64
2023-04-03T16:26:26.157Z,17.49
2023-04-03T16:28:53.517Z,17.46
2023-04-03T16:31:20.972Z,17.48
2023-04-03T16:33:47.615Z,17.38
2023-04-03T16:36:14.337Z,17.34
2023-04-03T16:38:41.144Z,17.63
2023-04-03T16:41:07.700Z,18.01
2023-04-03T16:43:34.611Z,18.10
2023-04-03T16:46:03.032Z,18.10
2023-04-03T16:48:31.592Z,18.21
2023-04-03T16:50:58.307Z,17.80
2023-04-03T16:53:26.248Z,17.80
2023-04-03T16:55:53.138Z,17.93
2023-04-03T16:58:21.670Z,17.92
2023-04-03T17:00:49.081Z,17.81
2023-04-03T17:03:15.696Z,17.68
2023-04-03T17:05:42.306Z,17.12
2023-04-03T17:08:08.933Z,17.21
2023-04-03T17:10:36.340Z,17.49
2023-04-03T17:13:03.039Z,17.47
2023-04-03T17:15:29.527Z,17.84
2023-04-03T17:17:56.248Z,17.56
2023-04-03T17:20:23.148Z,17.47
2023-04-03T17:22:49.714Z,17.56
2023-04-03T17:25:16.599Z,17.35
2023-04-03T17:27:43.347Z,17.28
2023-04-03T17:30:10.611Z,17.11
2023-04-03T17:32:38.352Z,16.94
2023-04-03T17:35:05.467Z,16.92
2023-04-03T17:37:32.013Z,16.94
2023-04-03T17:39:58.565Z,17.21
2023-04-03T17:42:25.248Z,17.12
2023-04-03T17:44:51.824Z,17.24
2023-04-03T17:47:18.479Z,17.33
2023-04-03T17:49:45.084Z,17.35
2023-04-03T17:52:11.643Z,17.04
2023-04-03T17:54:38.190Z,16.99
2023-04-03T17:57:05.572Z,16.89
2023-04-03T17:59:32.673Z,16.65
2023-04-03T18:01:59.315Z,16.81
2023-04-03T18:04:26.003Z,16.44
2023-04-03T18:06:55.058Z,16.55
2023-04-03T18:09:32.410Z,16.54
2023-04-03T18:12:02.393Z,16.43
2023-04-03T18:14:29.386Z,16.62
2023-04-03T18:16:59.026Z,16.48
2023-04-03T18:19:27.777Z,16.64
2023-04-03T18:22:00.360Z,16.80
2023-04-03T18:24:27.408Z,16.64
2023-04-03T18:27:00.633Z,16.46
2023-04-03T18:29:30.799Z,16.48
2023-04-03T18:31:58.796Z,16.20
2023-04-03T18:34:25.622Z,16.45
2023-04-03T18:36:52.465Z,16.39
2023-04-03T18:39:19.297Z,16.33
2023-04-03T18:41:46.678Z,16.25
2023-04-03T18:44:18.396Z,15.87
2023-04-03T18:46:45.856Z,15.83
2023-04-03T18:49:13.565Z,15.58
2023-04-03T18:51:40.904Z,15.70
2023-04-03T18:54:09.582Z,15.66
2023-04-03T18:56:37.272Z,15.67
2023-04-03T18:59:04.583Z,15.35
2023-04-03T19:01:31.777Z,15.11
2023-04-03T19:03:58.517Z,15.09
2023-04-03T19:06:25.149Z,15.43
2023-04-03T19:08:51.890Z,15.23
2023-04-03T19:11:18.442Z,15.35
2023-04-03T19:13:46.841Z,15.24
2023-04-03T19:16:30.781Z,15.23
2023-04-03T19:18:57.373Z,15.42
2023-04-03T19:21:23.931Z,14.65
2023-04-03T19:23:50.635Z,14.95
2023-04-03T19:26:17.247Z,14.92
2023-04-03T19:28:44.027Z,14.96
2023-04-03T19:31:13.888Z,14.89
2023-04-03T19:33:44.048Z,14.94
2023-04-03T19:36:11.469Z,14.63
2023-04-03T19:38:38.602Z,14.34
2023-04-03T19:41:22.570Z,13.86
2023-04-03T19:43:51.420Z,13.71
2023-04-03T19:46:21.506Z,14.13
2023-04-03T19:48:48.197Z,14.67
2023-04-03T19:51:14.756Z,14.64
2023-04-03T19:53:41.547Z,14.66
2023-04-03T19:56:08.144Z,14.36
2023-04-03T19:58:34.792Z,14.36
2023-04-03T20:01:01.445Z,14.50
2023-04-03T20:03:28.058Z,14.42
2023-04-03T20:05:57.594Z,14.18
2023-04-03T20:08:26.187Z,14.23
2023-04-03T20:10:52.726Z,14.25
2023-04-03T20:13:19.555Z,14.07
2023-04-03T20:15:46.097Z,14.18
2023-04-03T20:18:17.632Z,14.34
2023-04-03T20:20:59.290Z,14.20
2023-04-03T20:23:27.097Z,13.88
2023-04-03T20:26:06.607Z,13.86
2023-04-03T20:28:37.917Z,13.90
2023-04-03T20:31:04.931Z,14.03
2023-04-03T20:33:31.487Z,13.92
2023-04-03T20:35:58.429Z,13.67
2023-04-03T20:38:25.353Z,13.42
2023-04-03T20:40:52.231Z,13.43
2023-04-03T20:43:19.344Z,13.44
2023-04-03T20:45:46.019Z,13.71
2023-04-03T20:48:13.153Z,13.98
2023-04-03T20:50:41.080Z,13.91
2023-04-03T20:53:08.211Z,13.89
2023-04-03T20:55:35.135Z,13.84
2023-04-03T20:58:02.098Z,13.52
2023-04-03T21:00:31.522Z,13.58
2023-04-03T21:02:59.508Z,13.55
2023-04-03T21:05:28.957Z,13.75
2023-04-03T21:08:34.868Z,13.74
2023-04-03T21:11:39.300Z,13.56
2023-04-03T21:14:44.411Z,13.48
2023-04-03T21:17:10.960Z,13.70
2023-04-03T21:19:45.376Z,13.47
2023-04-03T21:22:13.528Z,13.46
2023-04-03T21:24:40.223Z,13.59
2023-04-03T21:27:06.792Z,13.72
2023-04-03T21:29:33.455Z,13.61
2023-04-03T21:32:01.508Z,13.46
2023-04-03T21:34:29.988Z,13.64
2023-04-03T21:37:01.217Z,13.45
2023-04-03T21:39:28.189Z,13.41
2023-04-03T21:41:54.855Z,13.22
2023-04-03T21:44:22.548Z,13.28
2023-04-03T21:46:53.637Z,12.78
2023-04-03T21:49:25.215Z,13.01
2023-04-03T21:51:52.362Z,13.17
2023-04-03T21:54:19.730Z,13.02
2023-04-03T21:56:48.033Z,13.16
2023-04-03T21:59:15.724Z,13.06
2023-04-03T22:01:42.921Z,13.03
2023-04-03T22:04:09.649Z,12.76
2023-04-03T22:06:37.546Z,12.59
2023-04-03T22:09:04.272Z,12.24
2023-04-03T22:11:31.093Z,12.70
2023-04-03T22:13:57.683Z,12.91
2023-04-03T22:16:24.495Z,12.70
2023-04-03T22:18:54.621Z,12.49
2023-04-03T22:21:21.925Z,12.50
2023-04-03T22:23:48.448Z,12.66
2023-04-03T22:26:15.173Z,12.53
2023-04-03T22:28:43.803Z,12.40
2023-04-03T22:31:14.100Z,12.19
2023-04-03T22:33:42.208Z,12.32
2023-04-03T22:36:10.676Z,12.44
2023-04-03T22:38:38.865Z,12.40
2023-04-03T22:41:07.740Z,12.53
2023-04-03T22:43:36.538Z,12.09
2023-04-03T22:46:05.436Z,12.02
2023-04-03T22:48:33.284Z,11.87
2023-04-03T22:51:01.009Z,11.94
2023-04-03T22:53:30.739Z,12.17
2023-04-03T22:55:58.535Z,12.38
2023-04-03T22:58:28.655Z,12.25
2023-04-03T23:01:09.730Z,12.27
2023-04-03T23:03:38.770Z,12.17
2023-04-03T23:06:06.667Z,12.11
2023-04-03T23:08:34.923Z,12.11
2023-04-03T23:11:02.090Z,12.04
2023-04-03T23:13:28.689Z,12.20
2023-04-03T23:16:00.681Z,12.06
2023-04-03T23:18:29.911Z,11.85
2023-04-03T23:20:58.519Z,12.08
2023-04-03T23:23:25.359Z,11.86
2023-04-03T23:25:53.009Z,12.01
2023-04-03T23:28:19.680Z,11.84
2023-04-03T23:30:46.706Z,11.49
2023-04-03T23:33:13.355Z,11.28
2023-04-03T23:35:48.240Z,11.22
2023-04-03T23:38:16.102Z,11.21
2023-04-03T23:40:43.163Z,11.46
2023-04-03T23:43:10.063Z,11.73
2023-04-03T23:45:37.237Z,11.58
2023-04-03T23:48:04.442Z,11.48
2023-04-03T23:50:31.100Z,11.58
2023-04-03T23:52:57.754Z,11.72
2023-04-03T23:55:24.324Z,11.90
2023-04-03T23:57:50.867Z,11.95
